createdAt,value
2023-05-15T00:00:32.580Z,11.6
2023-05-15T00:02:42.791Z,11.6
2023-05-15T00:04:50.709Z,11.5
2023-05-15T00:06:58.273Z,11.5
2023-05-15T00:09:05.771Z,11.5
2023-05-15T00:11:13.358Z,11.4
2023-05-15T00:13:20.993Z,11.4
2023-05-15T00:15:28.749Z,11.4
2023-05-15T00:17:36.540Z,11.3
2023-05-15T00:19:45.399Z,11.3
2023-05-15T00:21:53.840Z,11.3
2023-05-15T00:24:01.492Z,11.3
2023-05-15T00:26:09.038Z,11.3
2023-05-15T00:28:16.544Z,11.2
2023-05-15T00:30:24.089Z,11.2
2023-05-15T00:32:31.836Z,11.2
2023-05-15T00:34:39.379Z,11.2
2023-05-15T00:36:48.987Z,11.2
2023-05-15T00:38:57.743Z,11.2
2023-05-15T00:41:07.161Z,11.2
2023-05-15T00:43:16.772Z,11.1
2023-05-15T00:45:26.039Z,11.1
2023-05-15T00:47:35.033Z,11.1
2023-05-15T00:49:44.103Z,11
2023-05-15T00:51:53.643Z,11
2023-05-15T00:54:01.270Z,11
2023-05-15T00:56:09.923Z,11
2023-05-15T00:58:19.396Z,11
2023-05-15T01:00:29.512Z,11
2023-05-15T01:02:37.230Z,10.9
2023-05-15T01:04:45.732Z,10.9
2023-05-15T01:06:54.697Z,10.9
2023-05-15T01:09:03.804Z,10.9
2023-05-15T01:11:14.295Z,10.8
2023-05-15T01:13:23.738Z,10.8
2023-05-15T01:15:31.478Z,10.8
2023-05-15T01:17:39.260Z,10.8
2023-05-15T01:19:50.999Z,10.8
2023-05-15T01:22:34.615Z,10.7
2023-05-15T01:25:16.875Z,10.7
2023-05-15T01:27:30.920Z,10.6
2023-05-15T01:29:43.255Z,10.6
2023-05-15T01:31:58.000Z,10.6
2023-05-15T01:34:10.444Z,10.5
2023-05-15T01:36:25.543Z,10.5
2023-05-15T01:38:38.237Z,10.5
2023-05-15T01:40:48.102Z,10.5
2023-05-15T01:43:00.968Z,10.4
2023-05-15T01:45:13.136Z,10.3
2023-05-15T01:47:26.373Z,10.3
2023-05-15T01:49:36.632Z,10.3
2023-05-15T01:51:47.261Z,10.3
2023-05-15T01:53:56.304Z,10.3
2023-05-15T01:56:09.737Z,10.3
2023-05-15T01:58:19.535Z,10.3
2023-05-15T02:00:29.198Z,10.3
2023-05-15T02:02:38.363Z,10.3
2023-05-15T02:04:46.525Z,10.2
2023-05-15T02:06:55.508Z,10.1
2023-05-15T02:09:04.136Z,10.1
2023-05-15T02:11:12.368Z,10.1
2023-05-15T02:13:22.755Z,10.1
2023-05-15T02:15:30.946Z,10.1
2023-05-15T02:17:38.928Z,10.1
2023-05-15T02:19:46.615Z,10.1
2023-05-15T02:21:54.175Z,10.1
2023-05-15T02:24:01.902Z,10.1
2023-05-15T02:26:21.149Z,10.1
2023-05-15T02:28:39.191Z,10.1
2023-05-15T02:30:55.663Z,10
2023-05-15T02:33:13.698Z,10
2023-05-15T02:35:27.702Z,9.8
2023-05-15T02:37:38.939Z,9.8
2023-05-15T02:39:49.390Z,9.8
2023-05-15T02:41:58.089Z,9.8
2023-05-15T02:44:08.363Z,9.9
2023-05-15T02:46:16.786Z,9.9
2023-05-15T02:48:25.550Z,9.9
2023-05-15T02:50:34.093Z,9.9
2023-05-15T02:52:41.642Z,9.9
2023-05-15T02:54:49.449Z,9.9
2023-05-15T02:56:57.067Z,9.9
2023-05-15T02:59:04.826Z,9.9
2023-05-15T03:01:13.817Z,9.9
2023-05-15T03:03:21.365Z,9.9
2023-05-15T03:05:28.997Z,10
2023-05-15T03:07:37.304Z,10
2023-05-15T03:09:46.582Z,9.9
2023-05-15T03:11:54.101Z,10
2023-05-15T03:14:01.753Z,10
2023-05-15T03:16:10.283Z,10
2023-05-15T03:18:22.196Z,10
2023-05-15T03:20:30.245Z,10
2023-05-15T03:22:38.028Z,9.9
2023-05-15T03:24:46.042Z,9.9
2023-05-15T03:26:53.631Z,9.8
2023-05-15T03:29:02.207Z,9.8
2023-05-15T03:31:09.974Z,9.8
2023-05-15T03:33:19.137Z,9.8
2023-05-15T03:35:30.253Z,9.8
2023-05-15T03:37:39.997Z,9.8
2023-05-15T03:39:48.069Z,9.8
2023-05-15T03:41:55.629Z,9.8
2023-05-15T03:44:03.386Z,9.8
2023-05-15T03:46:12.627Z,9.8
2023-05-15T03:48:21.657Z,9.8
2023-05-15T03:50:29.148Z,9.8
2023-05-15T03:52:36.690Z,9.8
2023-05-15T03:54:44.296Z,9.8
2023-05-15T03:56:51.831Z,9.7
2023-05-15T03:59:00.161Z,9.7
2023-05-15T04:01:08.360Z,9.7
2023-05-15T04:03:17.047Z,9.7
2023-05-15T04:05:27.307Z,9.6
2023-05-15T04:07:40.030Z,9.7
2023-05-15T04:09:47.524Z,9.7
2023-05-15T04:11:54.981Z,9.7
2023-05-15T04:14:02.546Z,9.8
2023-05-15T04:16:10.108Z,9.8
2023-05-15T04:18:17.683Z,9.9
2023-05-15T04:20:27.566Z,9.9
2023-05-15T04:22:35.058Z,10
2023-05-15T04:24:42.604Z,10
2023-05-15T04:26:50.487Z,10.1
2023-05-15T04:29:03.826Z,10.1
2023-05-15T04:31:13.108Z,10.2
2023-05-15T04:33:20.654Z,10.4
2023-05-15T04:35:29.754Z,10.6
2023-05-15T04:37:37.502Z,10.8
2023-05-15T04:39:46.547Z,11
2023-05-15T04:41:54.217Z,11.1
2023-05-15T04:44:01.784Z,11.3
2023-05-15T04:46:09.526Z,11.4
2023-05-15T04:48:18.974Z,11.5
2023-05-15T04:50:26.578Z,11.6
2023-05-15T04:52:35.747Z,11.8
2023-05-15T04:54:43.401Z,11.9
2023-05-15T04:56:50.967Z,11.9
2023-05-15T04:58:58.536Z,12
2023-05-15T05:01:06.250Z,12
2023-05-15T05:03:16.309Z,12
2023-05-15T05:05:24.558Z,12
2023-05-15T05:07:32.516Z,12.1
2023-05-15T05:09:41.514Z,12.1
2023-05-15T05:11:49.127Z,12.2
2023-05-15T05:13:56.643Z,12.2
2023-05-15T05:16:04.630Z,12.2
2023-05-15T05:18:12.178Z,12.2
2023-05-15T05:20:20.312Z,12.3
2023-05-15T05:22:27.824Z,12.3
2023-05-15T05:24:37.061Z,12.3
2023-05-15T05:26:45.977Z,12.4
2023-05-15T05:28:53.819Z,12.5
2023-05-15T05:31:02.296Z,12.6
2023-05-15T05:33:10.488Z,12.7
2023-05-15T05:35:18.082Z,12.8
2023-05-15T05:37:26.942Z,12.9
2023-05-15T05:39:34.986Z,13
2023-05-15T05:41:43.724Z,13.1
2023-05-15T05:43:52.922Z,13.2
2023-05-15T05:46:00.674Z,13.3
2023-05-15T05:48:08.783Z,13.5
2023-05-15T05:50:17.104Z,13.6
2023-05-15T05:52:24.837Z,13.7
2023-05-15T05:54:32.331Z,13.8
2023-05-15T05:56:40.460Z,13.9
2023-05-15T05:58:48.443Z,14.1
2023-05-15T06:00:57.583Z,14.1
2023-05-15T06:03:05.360Z,14.1
2023-05-15T06:05:14.181Z,14.1
2023-05-15T06:07:22.360Z,14.3
2023-05-15T06:09:30.937Z,14.2
2023-05-15T06:11:38.642Z,14.2
2023-05-15T06:13:46.858Z,14.2
2023-05-15T06:15:54.472Z,14.3
2023-05-15T06:18:04.284Z,14.3
2023-05-15T06:20:12.839Z,14.4
2023-05-15T06:22:21.108Z,14.5
2023-05-15T06:24:29.350Z,14.6
2023-05-15T06:26:37.439Z,14.7
2023-05-15T06:28:44.963Z,14.9
2023-05-15T06:30:52.518Z,15
2023-05-15T06:33:00.624Z,15.2
2023-05-15T06:35:11.726Z,15.3
2023-05-15T06:37:19.422Z,15.4
2023-05-15T06:39:27.161Z,15.5
2023-05-15T06:41:34.806Z,15.6
2023-05-15T06:43:42.406Z,15.7
2023-05-15T06:45:50.683Z,15.8
2023-05-15T06:48:01.546Z,15.8
2023-05-15T06:50:13.108Z,15.9
2023-05-15T06:52:21.500Z,15.9
2023-05-15T06:54:29.070Z,16
2023-05-15T06:56:37.061Z,16
2023-05-15T06:58:44.692Z,16
2023-05-15T07:00:54.105Z,16.1
2023-05-15T07:03:06.021Z,16.1
2023-05-15T07:05:16.737Z,16.2
2023-05-15T07:07:27.414Z,16.2
2023-05-15T07:09:35.265Z,16.2
2023-05-15T07:11:42.798Z,16.3
2023-05-15T07:13:52.516Z,16.5
2023-05-15T07:16:01.583Z,16.6
2023-05-15T07:18:09.378Z,16.6
2023-05-15T07:20:18.551Z,16.7
2023-05-15T07:22:28.384Z,16.9
2023-05-15T07:24:37.395Z,17.1
2023-05-15T07:26:57.935Z,17.2
2023-05-15T07:29:07.235Z,17.4
2023-05-15T07:31:15.536Z,17.5
2023-05-15T07:33:23.567Z,17.7
2023-05-15T07:35:32.603Z,18
2023-05-15T07:37:41.164Z,18.2
2023-05-15T07:39:48.737Z,18.3
2023-05-15T07:41:56.441Z,18.4
2023-05-15T07:44:04.155Z,18.6
2023-05-15T07:46:12.053Z,18.9
2023-05-15T07:48:21.304Z,19.2
2023-05-15T07:50:28.862Z,19.4
2023-05-15T07:52:37.813Z,19.7
2023-05-15T07:54:45.370Z,19.9
2023-05-15T07:56:53.618Z,20.2
2023-05-15T07:59:03.353Z,20.3
2023-05-15T08:01:12.475Z,20.4
2023-05-15T08:03:20.753Z,20.5
2023-05-15T08:05:28.674Z,20.7
2023-05-15T08:07:37.993Z,20.8
2023-05-15T08:09:46.122Z,20.6
2023-05-15T08:11:57.139Z,20.6
2023-05-15T08:14:04.670Z,20.9
2023-05-15T08:16:12.674Z,21.1
2023-05-15T08:18:20.515Z,21.2
2023-05-15T08:20:28.173Z,21.3
2023-05-15T08:22:36.458Z,21.5
2023-05-15T08:24:49.405Z,21.6
2023-05-15T08:26:57.670Z,21.6
2023-05-15T08:29:05.766Z,21.7
2023-05-15T08:31:16.728Z,21.9
2023-05-15T08:33:24.360Z,22
2023-05-15T08:35:31.947Z,22
2023-05-15T08:37:39.636Z,21.8
2023-05-15T08:39:48.676Z,21.8
2023-05-15T08:42:03.601Z,22
2023-05-15T08:44:11.544Z,22.1
2023-05-15T08:46:19.181Z,22.3
2023-05-15T08:48:30.710Z,22.4
2023-05-15T08:50:40.114Z,22.5
2023-05-15T08:52:48.580Z,22.7
2023-05-15T08:54:58.882Z,22.7
2023-05-15T08:57:07.408Z,22.8
2023-05-15T08:59:15.707Z,23
2023-05-15T09:01:24.173Z,23.1
2023-05-15T09:03:32.099Z,23.1
2023-05-15T09:05:40.274Z,23.1
2023-05-15T09:07:50.103Z,23.3
2023-05-15T09:09:59.847Z,23.3
2023-05-15T09:12:10.794Z,23.4
2023-05-15T09:14:19.096Z,23.5
2023-05-15T09:16:27.122Z,23.3
2023-05-15T09:18:35.017Z,23.4
2023-05-15T09:20:42.897Z,23.6
2023-05-15T09:22:50.890Z,23.7
2023-05-15T09:24:59.944Z,23.8
2023-05-15T09:27:09.328Z,23.9
2023-05-15T09:29:18.997Z,24.1
2023-05-15T09:31:29.020Z,24.1
2023-05-15T09:33:38.440Z,24.3
2023-05-15T09:35:46.072Z,24.3
2023-05-15T09:38:00.506Z,24.4
2023-05-15T09:40:11.578Z,24.6
2023-05-15T09:42:19.126Z,24.7
2023-05-15T09:44:27.804Z,24.9
2023-05-15T09:46:36.273Z,25
2023-05-15T09:48:44.190Z,25
2023-05-15T09:50:52.071Z,25.1
2023-05-15T09:53:00.425Z,25.2
2023-05-15T09:55:16.397Z,25.1
2023-05-15T09:57:24.122Z,25.4
2023-05-15T09:59:33.094Z,25.6
2023-05-15T10:01:44.740Z,25.8
2023-05-15T10:04:00.366Z,25.7
2023-05-15T10:06:08.327Z,25.6
2023-05-15T10:08:16.755Z,25.6
2023-05-15T10:10:26.828Z,25.7
2023-05-15T10:12:36.465Z,25.9
2023-05-15T10:14:44.320Z,26.1
2023-05-15T10:16:52.141Z,26
2023-05-15T10:19:03.531Z,26.2
2023-05-15T10:21:17.968Z,26.4
2023-05-15T10:23:26.367Z,26.5
2023-05-15T10:25:49.359Z,26.7
2023-05-15T10:27:57.754Z,26.8
2023-05-15T10:30:06.708Z,26.8
2023-05-15T10:32:15.269Z,26.8
2023-05-15T10:34:23.629Z,26.6
2023-05-15T10:36:32.022Z,26.6
2023-05-15T10:38:40.226Z,26.6
2023-05-15T10:40:49.733Z,26.5
2023-05-15T10:43:00.052Z,26.4
2023-05-15T10:45:09.785Z,26.5
2023-05-15T10:47:17.585Z,26.7
2023-05-15T10:49:25.764Z,26.8
2023-05-15T10:51:36.541Z,26.7
2023-05-15T10:53:44.584Z,26.7
2023-05-15T10:55:53.737Z,26.7
2023-05-15T10:58:01.622Z,26.8
2023-05-15T11:00:28.519Z,27
2023-05-15T11:02:39.811Z,27.2
2023-05-15T11:04:47.745Z,27.1
2023-05-15T11:07:13.809Z,27
2023-05-15T11:09:37.969Z,27
2023-05-15T11:11:58.053Z,26.9
2023-05-15T11:14:15.262Z,26.7
2023-05-15T11:16:57.767Z,26.4
2023-05-15T11:19:22.872Z,26.2
2023-05-15T11:21:33.046Z,26.3
2023-05-15T11:23:42.365Z,26.2
2023-05-15T11:25:55.018Z,26.2
2023-05-15T11:28:05.553Z,26.2
2023-05-15T11:30:20.357Z,26.1
2023-05-15T11:32:51.531Z,25.9
2023-05-15T11:35:01.414Z,25.8
2023-05-15T11:37:17.544Z,25.6
2023-05-15T11:39:26.155Z,25.4
2023-05-15T11:41:34.052Z,25.4
2023-05-15T11:43:42.952Z,25.3
2023-05-15T11:45:55.469Z,25.3
2023-05-15T11:48:05.644Z,25.2
2023-05-15T11:50:13.808Z,25
2023-05-15T11:52:21.402Z,24.9
2023-05-15T11:54:29.292Z,24.8
2023-05-15T11:56:42.577Z,24.8
2023-05-15T11:58:52.536Z,24.6
2023-05-15T12:01:00.176Z,24.3
2023-05-15T12:03:11.785Z,24
2023-05-15T12:05:19.435Z,23.6
2023-05-15T12:07:27.025Z,23.3
2023-05-15T12:09:34.886Z,23
2023-05-15T12:11:42.972Z,22.8
2023-05-15T12:13:54.791Z,22.6
2023-05-15T12:16:03.050Z,22.4
2023-05-15T12:18:13.583Z,22.3
2023-05-15T12:20:21.577Z,22.2
2023-05-15T12:22:29.249Z,22.2
2023-05-15T12:24:39.449Z,22
2023-05-15T12:26:47.563Z,21.9
2023-05-15T12:28:57.019Z,21.8
2023-05-15T12:31:04.983Z,21.7
2023-05-15T12:33:13.056Z,21.7
2023-05-15T12:35:20.833Z,21.5
2023-05-15T12:39:55.060Z,21.2
2023-05-15T12:42:04.514Z,21.1
2023-05-15T12:44:18.807Z,21.1
2023-05-15T12:46:30.173Z,21
2023-05-15T12:48:38.008Z,21
2023-05-15T12:50:46.592Z,21
2023-05-15T12:52:55.495Z,21.1
2023-05-15T12:55:03.407Z,21.1
2023-05-15T12:57:14.451Z,21
2023-05-15T12:59:23.355Z,21.1
2023-05-15T13:01:30.943Z,21.1
2023-05-15T13:03:39.692Z,21.1
2023-05-15T13:05:47.415Z,21.1
2023-05-15T13:07:55.555Z,21.1
2023-05-15T13:10:05.613Z,21.2
2023-05-15T13:12:13.360Z,21.2
2023-05-15T13:14:27.561Z,21.3
2023-05-15T13:16:37.703Z,21.2
2023-05-15T13:18:45.811Z,21.2
2023-05-15T13:20:53.358Z,21.2
2023-05-15T13:23:01.530Z,21.3
2023-05-15T13:25:10.466Z,21.3
2023-05-15T13:27:18.024Z,21.3
2023-05-15T13:29:27.803Z,21.2
2023-05-15T13:31:35.622Z,21.1
2023-05-15T13:33:43.223Z,21.1
2023-05-15T13:35:50.796Z,21.1
2023-05-15T13:38:01.497Z,21.1
2023-05-15T13:40:10.886Z,21.1
2023-05-15T13:42:18.494Z,21
2023-05-15T13:44:27.471Z,21.1
2023-05-15T13:46:35.479Z,21.1
2023-05-15T13:48:43.124Z,21.1
2023-05-15T13:50:50.834Z,21
2023-05-15T13:52:58.378Z,21
2023-05-15T13:55:09.514Z,20.9
2023-05-15T13:57:17.137Z,20.8
2023-05-15T13:59:24.913Z,20.9
2023-05-15T14:01:34.266Z,20.8
2023-05-15T14:03:41.884Z,20.7
2023-05-15T14:05:49.420Z,20.6
2023-05-15T14:07:57.598Z,20.6
2023-05-15T14:10:06.140Z,20.6
2023-05-15T14:12:13.754Z,20.6
2023-05-15T14:14:21.466Z,20.6
2023-05-15T14:16:29.205Z,20.5
2023-05-15T14:18:38.364Z,20.5
2023-05-15T14:20:45.953Z,20.4
2023-05-15T14:22:53.451Z,20.4
2023-05-15T14:25:04.331Z,20.3
2023-05-15T14:27:12.121Z,20.3
2023-05-15T14:29:19.828Z,20.3
2023-05-15T14:31:27.525Z,20.3
2023-05-15T14:33:35.198Z,20.3
2023-05-15T14:35:44.296Z,20.3
2023-05-15T14:37:51.830Z,20.3
2023-05-15T14:39:59.442Z,20.4
2023-05-15T14:42:08.073Z,20.5
2023-05-15T14:44:15.828Z,20.5
2023-05-15T14:46:23.904Z,20.6
2023-05-15T14:48:31.567Z,20.6
2023-05-15T14:50:39.150Z,20.7
2023-05-15T14:52:48.039Z,20.7
2023-05-15T14:55:07.621Z,20.7
2023-05-15T14:57:19.980Z,20.7
2023-05-15T14:59:28.407Z,20.7
2023-05-15T15:01:35.916Z,20.7
2023-05-15T15:03:43.693Z,20.7
2023-05-15T15:05:51.728Z,20.8
2023-05-15T15:08:03.373Z,20.8
2023-05-15T15:10:11.867Z,20.9
2023-05-15T15:12:19.508Z,20.9
2023-05-15T15:14:27.408Z,20.9
2023-05-15T15:16:35.277Z,20.9
2023-05-15T15:18:43.022Z,20.9
2023-05-15T15:20:50.640Z,21
2023-05-15T15:22:58.243Z,21
2023-05-15T15:25:07.871Z,21.1
2023-05-15T15:27:15.409Z,21.1
2023-05-15T15:29:23.001Z,21.1
2023-05-15T15:31:31.240Z,21.3
2023-05-15T15:33:38.837Z,21.3
2023-05-15T15:35:46.363Z,21.3
2023-05-15T15:37:54.286Z,21.3
2023-05-15T15:40:02.961Z,21.3
2023-05-15T15:44:19.184Z,21.4
2023-05-15T15:46:26.782Z,21.5
2023-05-15T15:48:34.825Z,21.6
2023-05-15T15:50:42.371Z,21.6
2023-05-15T15:52:50.058Z,21.6
2023-05-15T15:54:57.755Z,21.4
2023-05-15T15:57:06.032Z,21.4
2023-05-15T15:59:15.274Z,21.3
2023-05-15T16:01:23.106Z,21.2
2023-05-15T16:03:31.171Z,21.2
2023-05-15T16:05:38.741Z,21.1
2023-05-15T16:07:47.530Z,21
2023-05-15T16:10:04.025Z,21
2023-05-15T16:12:19.416Z,20.9
2023-05-15T16:14:28.444Z,20.9
2023-05-15T16:16:36.211Z,20.8
2023-05-15T16:18:44.369Z,20.7
2023-05-15T16:20:51.883Z,20.7
2023-05-15T16:22:59.422Z,20.7
2023-05-15T16:25:07.882Z,20.7
2023-05-15T16:27:15.728Z,20.6
2023-05-15T16:29:23.450Z,20.6
2023-05-15T16:31:32.593Z,20.7
2023-05-15T16:33:40.210Z,20.6
2023-05-15T16:35:48.433Z,20.7
2023-05-15T16:37:56.142Z,20.9
2023-05-15T16:40:04.570Z,21.1
2023-05-15T16:42:12.409Z,21.4
2023-05-15T16:44:20.084Z,21.6
2023-05-15T16:46:27.684Z,21.7
2023-05-15T16:48:36.673Z,21.7
2023-05-15T16:50:44.240Z,21.8
2023-05-15T16:52:51.896Z,21.8
2023-05-15T16:54:59.478Z,21.9
2023-05-15T16:57:07.167Z,21.9
2023-05-15T16:59:14.755Z,21.8
2023-05-15T17:01:22.496Z,21.8
2023-05-15T17:03:30.145Z,21.9
2023-05-15T17:05:40.166Z,21.6
2023-05-15T17:07:48.191Z,21.5
2023-05-15T17:09:55.850Z,21.3
2023-05-15T17:12:03.554Z,21.1
2023-05-15T17:14:11.083Z,20.9
2023-05-15T17:16:18.710Z,20.7
2023-05-15T17:18:26.550Z,20.6
2023-05-15T17:20:34.176Z,20.5
2023-05-15T17:22:43.029Z,20.3
2023-05-15T17:24:52.585Z,20.1
2023-05-15T17:27:00.118Z,20.1
2023-05-15T17:29:07.617Z,20
2023-05-15T17:31:15.429Z,20
2023-05-15T17:33:22.902Z,19.9
2023-05-15T17:35:32.710Z,19.9
2023-05-15T17:37:42.858Z,19.8
2023-05-15T17:39:50.791Z,19.8
2023-05-15T17:41:58.365Z,19.8
2023-05-15T17:44:06.331Z,19.7
2023-05-15T17:46:13.924Z,19.7
2023-05-15T17:48:21.535Z,19.6
2023-05-15T17:50:29.036Z,19.5
2023-05-15T17:52:37.276Z,19.5
2023-05-15T17:54:46.233Z,19.4
2023-05-15T17:56:53.741Z,19.3
2023-05-15T17:59:01.619Z,19.2
2023-05-15T18:01:10.086Z,19.2
2023-05-15T18:03:18.022Z,19.1
2023-05-15T18:05:25.804Z,19
2023-05-15T18:07:33.475Z,18.9
2023-05-15T18:09:47.844Z,18.9
2023-05-15T18:11:58.333Z,18.9
2023-05-15T18:14:07.273Z,18.8
2023-05-15T18:16:15.763Z,18.7
2023-05-15T18:18:23.503Z,18.7
2023-05-15T18:20:31.380Z,18.6
2023-05-15T18:22:43.011Z,18.5
2023-05-15T18:24:50.603Z,18.5
2023-05-15T18:26:59.434Z,18.4
2023-05-15T18:29:07.294Z,18.3
2023-05-15T18:31:15.052Z,18.2
2023-05-15T18:33:22.613Z,18.1
2023-05-15T18:35:30.191Z,18
2023-05-15T18:37:37.730Z,17.8
2023-05-15T18:39:45.777Z,17.8
2023-05-15T18:41:53.773Z,17.7
2023-05-15T18:44:02.632Z,17.7
2023-05-15T18:46:10.340Z,17.6
2023-05-15T18:48:18.174Z,17.5
2023-05-15T18:50:25.818Z,17.5
2023-05-15T18:52:33.407Z,17.4
2023-05-15T18:54:41.666Z,17.3
2023-05-15T18:56:49.464Z,17.3
2023-05-15T18:58:57.317Z,17.3
2023-05-15T19:01:06.230Z,17.2
2023-05-15T19:03:14.021Z,17.2
2023-05-15T19:05:22.094Z,17.1
2023-05-15T19:07:29.647Z,17.1
2023-05-15T19:09:39.737Z,17
2023-05-15T19:11:49.043Z,17
2023-05-15T19:13:56.559Z,17
2023-05-15T19:16:07.194Z,17
2023-05-15T19:18:14.858Z,16.9
2023-05-15T19:20:22.601Z,16.9
2023-05-15T19:22:30.166Z,16.9
2023-05-15T19:24:37.640Z,16.9
2023-05-15T19:26:45.224Z,16.8
2023-05-15T19:28:53.535Z,16.8
2023-05-15T19:31:01.057Z,16.7
2023-05-15T19:33:10.033Z,16.7
2023-05-15T19:35:17.559Z,16.6
2023-05-15T19:37:25.095Z,16.6
2023-05-15T19:39:33.296Z,16.6
2023-05-15T19:41:42.277Z,16.6
2023-05-15T19:43:50.706Z,16.6
2023-05-15T19:45:58.466Z,16.6
2023-05-15T19:48:06.609Z,16.6
2023-05-15T19:50:16.041Z,16.6
2023-05-15T19:52:24.135Z,16.6
2023-05-15T19:54:31.663Z,16.5
2023-05-15T19:56:39.355Z,16.5
2023-05-15T19:58:46.949Z,16.5
2023-05-15T20:00:54.761Z,16.5
2023-05-15T20:03:02.845Z,16.5
2023-05-15T20:05:10.657Z,16.5
2023-05-15T20:07:19.687Z,16.4
2023-05-15T20:09:27.405Z,16.4
2023-05-15T20:11:35.075Z,16.4
2023-05-15T20:13:42.526Z,16.3
2023-05-15T20:15:56.538Z,16.2
2023-05-15T20:18:04.186Z,16.2
2023-05-15T20:20:12.433Z,16.2
2023-05-15T20:22:21.499Z,16.1
2023-05-15T20:24:30.062Z,16
2023-05-15T20:26:37.610Z,15.9
2023-05-15T20:28:45.568Z,15.8
2023-05-15T20:30:54.260Z,15.8
2023-05-15T20:33:01.835Z,15.7
2023-05-15T20:35:11.981Z,15.7
2023-05-15T20:37:21.350Z,15.7
2023-05-15T20:39:28.976Z,15.6
2023-05-15T20:41:36.813Z,15.5
2023-05-15T20:43:44.419Z,15.5
2023-05-15T20:45:51.991Z,15.4
2023-05-15T20:47:59.656Z,15.3
2023-05-15T20:50:08.240Z,15.2
2023-05-15T20:52:15.849Z,15.2
2023-05-15T20:54:24.928Z,15.1
2023-05-15T20:56:32.383Z,15.1
2023-05-15T20:58:39.977Z,15
2023-05-15T21:00:47.648Z,14.9
2023-05-15T21:02:55.254Z,14.9
2023-05-15T21:05:02.920Z,14.8
2023-05-15T21:07:10.649Z,14.7
2023-05-15T21:09:18.358Z,14.7
2023-05-15T21:11:27.382Z,14.5
2023-05-15T21:13:34.997Z,14.5
2023-05-15T21:15:42.703Z,14.3
2023-05-15T21:17:50.461Z,14.2
2023-05-15T21:19:58.301Z,14.2
2023-05-15T21:22:06.230Z,14.1
2023-05-15T21:24:13.803Z,14
2023-05-15T21:26:21.919Z,13.9
2023-05-15T21:28:30.986Z,13.8
2023-05-15T21:30:38.759Z,13.7
2023-05-15T21:32:46.431Z,13.6
2023-05-15T21:34:54.183Z,13.5
2023-05-15T21:37:01.770Z,13.4
2023-05-15T21:39:10.387Z,13.4
2023-05-15T21:41:18.685Z,13.3
2023-05-15T21:43:26.376Z,13.3
2023-05-15T21:45:35.552Z,13.2
2023-05-15T21:47:43.187Z,13.1
2023-05-15T21:49:50.870Z,13.1
2023-05-15T21:51:59.051Z,13
2023-05-15T21:54:06.656Z,13
2023-05-15T21:56:14.169Z,12.9
2023-05-15T21:58:21.711Z,12.9
2023-05-15T22:00:29.561Z,13
2023-05-15T22:02:39.190Z,12.9
2023-05-15T22:04:46.966Z,12.9
2023-05-15T22:06:54.571Z,12.9
2023-05-15T22:09:12.563Z,12.8
2023-05-15T22:11:20.446Z,12.8
2023-05-15T22:13:29.131Z,12.8
2023-05-15T22:16:05.707Z,12.7
2023-05-15T22:18:06.600Z,12.7
2023-05-15T22:20:18.360Z,12.6
2023-05-15T22:22:26.000Z,12.6
2023-05-15T22:24:37.249Z,12.6
2023-05-15T22:26:45.439Z,12.6
2023-05-15T22:29:57.235Z,12.5
2023-05-15T22:31:22.934Z,12.4
2023-05-15T22:33:32.032Z,12.4
2023-05-15T22:35:40.469Z,12.4
2023-05-15T22:37:48.742Z,12.4
2023-05-15T22:39:56.493Z,12.4
2023-05-15T22:42:04.537Z,12.3
2023-05-15T22:44:12.748Z,12.3
2023-05-15T22:46:21.340Z,12.3
2023-05-15T22:48:29.968Z,12.2
2023-05-15T22:50:39.992Z,12.2
2023-05-15T22:52:47.594Z,12.2
2023-05-15T22:54:56.623Z,12.1
2023-05-15T22:57:05.130Z,12.1
2023-05-15T22:59:13.238Z,12
2023-05-15T23:01:21.571Z,12
2023-05-15T23:03:38.506Z,11.9
2023-05-15T23:05:47.593Z,11.9
2023-05-15T23:07:57.018Z,11.7
2023-05-15T23:10:05.215Z,11.7
2023-05-15T23:12:13.298Z,11.7
2023-05-15T23:14:21.613Z,11.6
2023-05-15T23:16:29.273Z,11.6
2023-05-15T23:18:36.996Z,11.6
2023-05-15T23:20:45.632Z,11.5
2023-05-15T23:22:54.648Z,11.5
2023-05-15T23:25:03.958Z,11.4
2023-05-15T23:27:11.534Z,11.5
2023-05-15T23:29:19.047Z,11.4
2023-05-15T23:31:27.779Z,11.4
2023-05-15T23:33:35.341Z,11.4
2023-05-15T23:35:43.027Z,11.3
2023-05-15T23:37:50.624Z,11.3
2023-05-15T23:39:59.563Z,11.2
2023-05-15T23:42:09.650Z,11.2
2023-05-15T23:44:17.143Z,11.1
2023-05-15T23:46:24.709Z,11.1
2023-05-15T23:48:33.383Z,11.1
2023-05-15T23:50:40.984Z,11
2023-05-15T23:52:48.630Z,11
2023-05-15T23:54:56.130Z,11
2023-05-15T23:57:05.619Z,11
2023-05-15T23:59:14.302Z,11
